Time;durP1;ratioP1;P1;durP2;ratioP2;P2;SDS_P1;SDS_P2;PMS_P1;PMS_P2;Temp;Humidity;BMP_temperature;BMP_pressure;BME280_temperature;BME280_humidity;BME280_pressure;Samples;Min_cycle;Max_cycle;Signal;HPM_P1;HPM_P2
2023/06/23 00:01:32;;;;;;;2.15;1.50;;;23.10;99.90;;;;;;5095256;28;20315;-67
2023/06/23 00:03:59;;;;;;;2.17;1.40;;;23.10;99.90;;;;;;5095232;28;20287;-68
2023/06/23 00:06:26;;;;;;;2.85;1.52;;;23.10;99.90;;;;;;5094721;28;20200;-67
2023/06/23 00:08:53;;;;;;;2.95;1.58;;;23.10;99.90;;;;;;5094753;28;20238;-67
2023/06/23 00:11:20;;;;;;;1.92;1.70;;;23.00;99.90;;;;;;5095083;28;20261;-68
2023/06/23 00:13:46;;;;;;;3.85;1.85;;;23.00;99.90;;;;;;5095277;28;20204;-67
2023/06/23 00:16:13;;;;;;;1.58;1.42;;;23.00;99.90;;;;;;5094792;28;20204;-67
2023/06/23 00:18:41;;;;;;;2.17;1.73;;;23.10;99.90;;;;;;5094883;28;20224;-67
2023/06/23 00:21:10;;;;;;;2.30;1.70;;;23.10;99.90;;;;;;5095514;28;20200;-67
2023/06/23 00:23:37;;;;;;;2.58;1.40;;;23.10;99.90;;;;;;5095286;28;20208;-67
2023/06/23 00:26:06;;;;;;;2.33;1.60;;;23.20;99.90;;;;;;5094995;28;20204;-67
2023/06/23 00:28:33;;;;;;;1.90;1.50;;;23.20;99.90;;;;;;5095202;28;20212;-67
2023/06/23 00:31:00;;;;;;;2.97;1.85;;;23.20;99.90;;;;;;5095387;28;20208;-67
2023/06/23 00:33:27;;;;;;;2.10;1.52;;;23.10;99.90;;;;;;5094698;28;20204;-68
2023/06/23 00:35:55;;;;;;;2.20;1.60;;;23.20;99.90;;;;;;5094311;28;20212;-68
2023/06/23 00:38:24;;;;;;;2.15;1.73;;;23.10;99.90;;;;;;5094176;28;20257;-67
2023/06/23 00:40:50;;;;;;;2.30;1.85;;;23.10;99.90;;;;;;5094549;28;20204;-67
2023/06/23 00:43:17;;;;;;;1.83;1.70;;;23.10;99.90;;;;;;5094400;28;20281;-68
2023/06/23 00:45:44;;;;;;;2.20;1.70;;;23.10;99.90;;;;;;5094208;28;20219;-67
2023/06/23 00:48:14;;;;;;;2.03;1.77;;;23.00;99.90;;;;;;5094177;28;20232;-68
2023/06/23 00:50:41;;;;;;;2.58;1.85;;;23.00;99.90;;;;;;5093724;28;20224;-67
2023/06/23 00:53:10;;;;;;;2.00;1.67;;;23.00;99.90;;;;;;5094344;28;20292;-67
2023/06/23 00:55:37;;;;;;;2.30;1.88;;;22.90;99.90;;;;;;5094387;28;20215;-67
2023/06/23 00:58:08;;;;;;;2.58;1.80;;;23.00;99.90;;;;;;5094012;28;20230;-67
2023/06/23 01:00:35;;;;;;;1.92;1.52;;;23.00;99.90;;;;;;5093891;28;20266;-67
2023/06/23 01:03:03;;;;;;;1.73;1.63;;;23.00;99.90;;;;;;5093675;28;20731;-67
2023/06/23 01:05:34;;;;;;;1.90;1.70;;;22.90;99.90;;;;;;5093754;28;20243;-67
2023/06/23 01:08:13;;;;;;;2.22;1.60;;;22.90;99.90;;;;;;5093436;28;20677;-67
2023/06/23 01:10:46;;;;;;;2.60;1.77;;;22.90;99.90;;;;;;5098656;22;20272;-59
2023/06/23 01:13:20;;;;;;;1.70;1.60;;;22.80;99.90;;;;;;5073517;28;20201;-59
2023/06/23 01:15:52;;;;;;;1.63;1.52;;;22.80;99.90;;;;;;5073300;28;20201;-59
2023/06/23 01:18:28;;;;;;;2.63;1.63;;;22.80;99.90;;;;;;5072942;28;20695;-59
2023/06/23 01:21:01;;;;;;;1.98;1.70;;;22.80;99.90;;;;;;5072924;28;20256;-59
2023/06/23 01:24:11;;;;;;;1.70;1.60;;;22.70;99.90;;;;;;5072691;28;20829;-57
2023/06/23 01:26:50;;;;;;;1.77;1.60;;;22.70;99.90;;;;;;5072707;28;20304;-59
2023/06/23 01:29:24;;;;;;;1.88;1.77;;;22.60;99.90;;;;;;5073049;28;20302;-59
2023/06/23 01:31:55;;;;;;;2.33;2.10;;;22.40;99.90;;;;;;5072750;28;20306;-59
2023/06/23 01:34:26;;;;;;;2.50;2.13;;;22.30;99.90;;;;;;5072646;28;20213;-59
2023/06/23 01:36:58;;;;;;;3.55;2.28;;;22.20;99.90;;;;;;5072668;28;20262;-59
2023/06/23 01:39:28;;;;;;;2.40;2.00;;;22.00;99.90;;;;;;5072526;28;20279;-59
2023/06/23 01:42:01;;;;;;;2.28;2.08;;;21.80;99.90;;;;;;5072508;28;20232;-59
2023/06/23 01:44:31;;;;;;;2.40;2.20;;;21.70;99.90;;;;;;5072414;28;20209;-59
2023/06/23 01:47:02;;;;;;;2.72;2.38;;;21.60;99.90;;;;;;5071992;28;20213;-59
2023/06/23 01:49:36;;;;;;;2.22;2.00;;;21.60;99.90;;;;;;5072181;28;20232;-59
2023/06/23 01:52:06;;;;;;;2.30;2.10;;;21.50;99.90;;;;;;5072154;28;20205;-59
2023/06/23 01:54:34;;;;;;;2.72;2.33;;;21.40;99.90;;;;;;5072075;28;20704;-59
2023/06/23 01:57:02;;;;;;;3.72;2.58;;;21.30;99.90;;;;;;5072371;28;20212;-59
2023/06/23 01:59:31;;;;;;;3.70;2.85;;;21.20;99.90;;;;;;5072097;28;20901;-58
2023/06/23 02:01:59;;;;;;;2.63;2.42;;;21.10;99.90;;;;;;5071476;28;20209;-59
2023/06/23 02:04:28;;;;;;;6.78;2.90;;;21.00;99.90;;;;;;5072056;28;20205;-59
2023/06/23 02:06:57;;;;;;;3.65;2.90;;;20.80;99.90;;;;;;5071529;28;20677;-58
2023/06/23 02:09:27;;;;;;;3.75;2.80;;;20.70;99.90;;;;;;5071666;28;20290;-59
2023/06/23 02:11:56;;;;;;;3.10;2.80;;;20.60;99.90;;;;;;5071816;28;20251;-59
2023/06/23 02:14:24;;;;;;;4.32;2.55;;;20.60;99.90;;;;;;5072158;28;20213;-59
2023/06/23 02:16:53;;;;;;;3.17;2.88;;;20.60;99.90;;;;;;5071414;28;20213;-59
2023/06/23 02:19:24;;;;;;;3.65;3.35;;;20.70;99.90;;;;;;5071647;28;20315;-59
2023/06/23 02:21:52;;;;;;;3.45;3.15;;;20.90;99.90;;;;;;5071461;28;20223;-58
2023/06/23 02:24:19;;;;;;;6.75;3.50;;;20.80;99.90;;;;;;5071422;28;20206;-59
2023/06/23 02:26:47;;;;;;;5.03;3.50;;;20.70;99.90;;;;;;5071532;28;20209;-59
2023/06/23 02:29:16;;;;;;;3.60;3.08;;;20.70;99.90;;;;;;5071577;28;20225;-59
2023/06/23 02:31:43;;;;;;;3.67;3.38;;;20.60;99.90;;;;;;5071437;28;20739;-59
2023/06/23 02:34:11;;;;;;;4.30;3.70;;;20.60;99.90;;;;;;5071463;28;20201;-61
2023/06/23 02:36:44;;;;;;;3.45;3.13;;;20.60;99.90;;;;;;5071228;28;20271;-59
2023/06/23 02:39:13;;;;;;;8.07;3.20;;;20.50;99.90;;;;;;5071289;28;20235;-59
2023/06/23 02:41:41;;;;;;;3.13;2.83;;;20.40;99.90;;;;;;5071537;28;20201;-59
2023/06/23 02:44:13;;;;;;;3.25;2.95;;;20.40;99.90;;;;;;5071216;28;20221;-59
2023/06/23 02:46:44;;;;;;;3.25;2.95;;;20.40;99.90;;;;;;5071081;28;20209;-59
2023/06/23 02:49:18;;;;;;;2.92;2.50;;;20.30;99.90;;;;;;5070912;28;20585;-59
2023/06/23 02:51:46;;;;;;;2.90;2.60;;;20.20;99.90;;;;;;5071430;28;20636;-59
2023/06/23 02:54:17;;;;;;;3.28;2.75;;;20.20;99.90;;;;;;5071265;28;20717;-59
2023/06/23 02:56:45;;;;;;;3.60;3.08;;;20.10;99.90;;;;;;5070895;28;20231;-59
2023/06/23 02:59:16;;;;;;;3.30;2.95;;;20.20;99.90;;;;;;5071046;28;20228;-58
2023/06/23 03:01:45;;;;;;;3.00;2.70;;;20.20;99.90;;;;;;5071378;28;20667;-60
2023/06/23 03:04:13;;;;;;;3.42;3.13;;;20.20;99.90;;;;;;5071049;28;20614;-60
2023/06/23 03:06:41;;;;;;;4.20;3.25;;;20.20;99.90;;;;;;5071055;28;20208;-59
2023/06/23 03:09:07;;;;;;;3.63;3.20;;;20.30;99.90;;;;;;5071210;28;20243;-60
2023/06/23 03:11:34;;;;;;;3.85;3.45;;;20.30;99.90;;;;;;5071205;28;20207;-59
2023/06/23 03:14:01;;;;;;;3.88;3.58;;;20.10;99.90;;;;;;5073521;28;20209;-60
2023/06/23 03:16:35;;;;;;;4.45;4.05;;;20.10;99.90;;;;;;5074872;28;20204;-59
2023/06/23 03:19:13;;;;;;;4.70;3.90;;;20.10;99.90;;;;;;5075260;28;20649;-60
2023/06/23 03:21:44;;;;;;;4.70;3.97;;;20.20;99.90;;;;;;5075034;28;20790;-59
2023/06/23 03:24:14;;;;;;;4.75;4.35;;;20.30;99.90;;;;;;5074867;28;20231;-59
2023/06/23 03:26:47;;;;;;;8.18;5.00;;;20.20;99.90;;;;;;5074471;28;20211;-60
2023/06/23 03:29:15;;;;;;;5.78;4.78;;;20.30;99.90;;;;;;5075355;28;20233;-60
2023/06/23 03:31:45;;;;;;;5.10;4.55;;;20.30;99.90;;;;;;5074918;28;20232;-60
2023/06/23 03:34:13;;;;;;;5.57;4.97;;;20.40;99.90;;;;;;5074937;28;20205;-60
2023/06/23 03:36:43;;;;;;;6.38;5.78;;;20.40;99.90;;;;;;5074573;28;20696;-60
2023/06/23 03:39:15;;;;;;;6.10;5.45;;;20.40;99.90;;;;;;5074594;28;20220;-60
2023/06/23 03:41:43;;;;;;;7.15;6.45;;;20.30;99.90;;;;;;5074704;28;20218;-60
2023/06/23 03:44:20;;;;;;;7.03;6.32;;;20.40;99.90;;;;;;5074755;28;20236;-60
2023/06/23 03:46:51;;;;;;;7.68;6.35;;;20.40;99.90;;;;;;5074084;28;20204;-60
2023/06/23 03:49:21;;;;;;;7.07;6.35;;;20.40;99.90;;;;;;5074285;28;20225;-59
2023/06/23 03:51:51;;;;;;;10.60;6.68;;;20.40;99.90;;;;;;5074270;28;20680;-59
2023/06/23 03:54:20;;;;;;;7.72;6.53;;;20.40;99.90;;;;;;5074669;28;20296;-59
2023/06/23 03:56:49;;;;;;;8.35;7.43;;;20.30;99.90;;;;;;5074033;28;20204;-59
2023/06/23 03:59:18;;;;;;;7.00;6.30;;;20.30;99.90;;;;;;5074302;28;20229;-59
2023/06/23 04:01:48;;;;;;;7.28;6.57;;;20.40;99.90;;;;;;5074403;28;20692;-59
2023/06/23 04:04:18;;;;;;;8.68;7.80;;;20.40;99.90;;;;;;5074325;28;20209;-59
2023/06/23 04:06:47;;;;;;;8.57;7.20;;;20.50;99.90;;;;;;5074448;28;20212;-59
2023/06/23 04:09:17;;;;;;;8.30;6.25;;;20.50;99.90;;;;;;5074320;28;20244;-59
2023/06/23 04:11:45;;;;;;;7.30;6.55;;;20.50;99.90;;;;;;5074401;28;20201;-59
2023/06/23 04:14:14;;;;;;;8.15;6.97;;;20.50;99.90;;;;;;5073962;28;20228;-59
2023/06/23 04:16:43;;;;;;;7.50;6.43;;;20.50;99.90;;;;;;5073627;28;20734;-59
2023/06/23 04:19:12;;;;;;;8.40;6.65;;;20.50;99.90;;;;;;5074098;28;20228;-58
2023/06/23 04:21:40;;;;;;;8.75;7.35;;;20.50;99.90;;;;;;5074206;28;20205;-59
2023/06/23 04:24:08;;;;;;;7.68;6.97;;;20.60;99.90;;;;;;5074082;28;20201;-59
2023/06/23 04:26:37;;;;;;;9.15;7.25;;;20.60;99.90;;;;;;5073333;28;20215;-59
2023/06/23 04:29:07;;;;;;;8.82;6.97;;;20.70;99.90;;;;;;5073717;28;20278;-59
2023/06/23 04:31:36;;;;;;;9.10;7.10;;;20.70;99.90;;;;;;5073727;28;20212;-59
2023/06/23 04:34:02;;;;;;;7.88;7.07;;;20.80;99.90;;;;;;5073849;28;20229;-58
2023/06/23 04:36:45;;;;;;;9.35;7.00;;;20.80;99.90;;;;;;5073626;28;20247;-59
2023/06/23 04:39:16;;;;;;;8.30;7.15;;;20.80;99.90;;;;;;5073682;28;20232;-59
2023/06/23 04:41:48;;;;;;;11.68;7.80;;;20.80;99.90;;;;;;5073547;28;20215;-58
2023/06/23 04:44:19;;;;;;;8.60;7.70;;;20.80;99.90;;;;;;5073613;28;20661;-58
2023/06/23 04:46:48;;;;;;;8.13;7.28;;;21.00;99.90;;;;;;5073339;28;20221;-59
2023/06/23 04:49:19;;;;;;;9.63;7.88;;;21.00;99.90;;;;;;5073400;28;20221;-57
2023/06/23 04:51:47;;;;;;;8.80;7.78;;;21.10;99.90;;;;;;5073246;28;20205;-59
2023/06/23 04:54:20;;;;;;;10.32;8.63;;;21.20;99.90;;;;;;5072928;28;20228;-59
2023/06/23 04:56:50;;;;;;;10.95;7.80;;;21.20;99.90;;;;;;5072791;28;20619;-59
2023/06/23 04:59:21;;;;;;;9.98;8.35;;;21.20;99.90;;;;;;5072860;28;20617;-58
2023/06/23 05:01:49;;;;;;;11.63;9.15;;;21.30;99.90;;;;;;5073040;28;20208;-58
2023/06/23 05:04:17;;;;;;;9.18;8.15;;;21.40;99.90;;;;;;5073125;28;20254;-58
2023/06/23 05:06:45;;;;;;;9.55;8.55;;;21.50;99.90;;;;;;5072465;28;20238;-59
2023/06/23 05:09:13;;;;;;;10.02;9.02;;;21.80;99.90;;;;;;5072672;28;20719;-58
2023/06/23 05:11:41;;;;;;;9.80;8.80;;;22.60;99.90;;;;;;5072992;28;20207;-59
2023/06/23 05:14:11;;;;;;;11.20;9.50;;;23.30;99.90;;;;;;5072527;28;20638;-59
2023/06/23 05:16:38;;;;;;;10.90;9.73;;;23.80;99.90;;;;;;5072511;28;20295;-58
2023/06/23 05:19:08;;;;;;;11.23;10.00;;;24.00;99.90;;;;;;5072511;28;20221;-58
2023/06/23 05:21:36;;;;;;;11.90;9.10;;;24.00;99.90;;;;;;5072951;28;20401;-60
2023/06/23 05:24:07;;;;;;;10.82;9.70;;;24.40;99.90;;;;;;5072516;28;20719;-60
2023/06/23 05:26:36;;;;;;;12.82;11.15;;;24.50;99.90;;;;;;5072303;28;20211;-58
2023/06/23 05:29:07;;;;;;;13.20;11.70;;;24.30;99.90;;;;;;5072752;28;20225;-58
2023/06/23 05:31:38;;;;;;;12.25;10.80;;;23.80;99.90;;;;;;5072880;28;20263;-58
2023/06/23 05:34:08;;;;;;;12.88;11.55;;;23.30;99.90;;;;;;5072359;28;20225;-58
2023/06/23 05:36:37;;;;;;;12.85;11.10;;;23.00;99.90;;;;;;5071355;28;20220;-58
2023/06/23 05:39:06;;;;;;;14.68;13.05;;;22.70;99.90;;;;;;5072395;28;20240;-57
2023/06/23 05:41:33;;;;;;;15.65;12.43;;;22.40;99.90;;;;;;5072533;28;20211;-59
2023/06/23 05:44:00;;;;;;;14.75;12.63;;;22.20;99.90;;;;;;5072228;28;20300;-59
2023/06/23 05:46:29;;;;;;;14.00;12.63;;;22.10;99.90;;;;;;5071848;28;20745;-59
2023/06/23 05:49:03;;;;;;;14.77;13.23;;;22.00;99.90;;;;;;5072211;28;20320;-58
2023/06/23 05:51:31;;;;;;;16.67;14.07;;;21.90;99.90;;;;;;5072381;28;20197;-59
2023/06/23 05:54:01;;;;;;;16.65;14.85;;;21.80;99.90;;;;;;5072112;28;20221;-59
2023/06/23 05:56:33;;;;;;;15.48;13.73;;;21.70;99.90;;;;;;5071881;28;20212;-59
2023/06/23 05:59:04;;;;;;;20.92;14.73;;;21.70;99.90;;;;;;5071930;28;20286;-59
2023/06/23 06:01:33;;;;;;;17.90;15.45;;;21.70;99.90;;;;;;5072168;28;20342;-59
2023/06/23 06:04:06;;;;;;;17.73;15.82;;;21.70;99.90;;;;;;5071794;28;20201;-57
2023/06/23 06:06:36;;;;;;;18.02;16.08;;;21.80;99.90;;;;;;5071694;28;20208;-58
2023/06/23 06:09:04;;;;;;;19.63;16.27;;;21.90;99.90;;;;;;5071701;28;20236;-59
2023/06/23 06:11:33;;;;;;;24.55;15.93;;;22.00;99.90;;;;;;5071858;28;20666;-59
2023/06/23 06:14:01;;;;;;;16.63;15.00;;;22.10;99.90;;;;;;5072008;28;20225;-58
2023/06/23 06:16:29;;;;;;;19.05;16.63;;;22.20;99.90;;;;;;5071662;28;20288;-59
2023/06/23 06:18:57;;;;;;;20.98;15.88;;;22.30;99.90;;;;;;5071583;28;20232;-59
2023/06/23 06:21:29;;;;;;;18.25;16.33;;;22.30;99.90;;;;;;5071712;28;20582;-59
2023/06/23 06:23:57;;;;;;;17.55;15.80;;;22.30;99.90;;;;;;5071663;28;20258;-59
2023/06/23 06:26:25;;;;;;;17.20;15.40;;;22.30;99.90;;;;;;5071337;28;20547;-59
2023/06/23 06:28:54;;;;;;;18.38;16.42;;;22.40;99.90;;;;;;5071543;28;20228;-59
2023/06/23 06:31:22;;;;;;;18.10;15.80;;;22.40;99.90;;;;;;5071710;28;20288;-59
2023/06/23 06:33:52;;;;;;;18.77;15.45;;;22.40;99.90;;;;;;5071489;28;20232;-58
2023/06/23 06:36:21;;;;;;;17.65;15.65;;;22.50;99.90;;;;;;5071117;28;20676;-60
2023/06/23 06:38:52;;;;;;;17.55;15.57;;;22.80;99.90;;;;;;5071541;28;20201;-58
2023/06/23 06:41:19;;;;;;;18.92;15.02;;;22.90;99.90;;;;;;5071475;28;20204;-59
2023/06/23 06:43:47;;;;;;;16.90;15.07;;;22.90;99.90;;;;;;5071122;28;20201;-59
2023/06/23 06:46:15;;;;;;;16.88;15.07;;;22.90;99.90;;;;;;5070943;28;20255;-58
2023/06/23 06:48:46;;;;;;;16.35;14.55;;;22.90;99.90;;;;;;5070920;28;20668;-58
2023/06/23 06:51:14;;;;;;;16.75;14.95;;;22.80;99.90;;;;;;5071728;28;20349;-59
2023/06/23 06:53:40;;;;;;;17.10;14.98;;;22.70;99.90;;;;;;5071012;28;20700;-59
2023/06/23 06:56:09;;;;;;;18.52;15.73;;;22.70;99.90;;;;;;5071097;28;20232;-59
2023/06/23 06:58:38;;;;;;;18.85;15.85;;;22.60;99.90;;;;;;5071221;28;20219;-61
2023/06/23 07:01:05;;;;;;;18.60;15.52;;;22.60;99.90;;;;;;5071538;28;20204;-59
2023/06/23 07:03:33;;;;;;;16.77;14.88;;;22.70;99.90;;;;;;5071138;28;20215;-58
2023/06/23 07:05:59;;;;;;;16.65;14.45;;;23.20;99.90;;;;;;5070718;28;20750;-58
2023/06/23 07:08:26;;;;;;;16.08;14.43;;;24.10;99.90;;;;;;5071346;28;20208;-58
2023/06/23 07:10:53;;;;;;;19.20;13.98;;;24.80;99.90;;;;;;5071463;28;20236;-56
2023/06/23 07:13:21;;;;;;;17.58;14.57;;;25.40;99.90;;;;;;5070953;28;20266;-57
2023/06/23 07:15:48;;;;;;;18.83;15.45;;;25.70;99.90;;;;;;5070907;28;20258;-57
2023/06/23 07:18:15;;;;;;;15.30;13.80;;;25.60;99.90;;;;;;5071221;28;20266;-55
2023/06/23 07:20:42;;;;;;;16.85;15.05;;;25.20;99.90;;;;;;5072184;28;20400;-55
2023/06/23 07:23:09;;;;;;;19.25;15.23;;;24.90;99.90;;;;;;5072100;28;20672;-55
2023/06/23 07:25:36;;;;;;;18.65;15.25;;;24.60;99.90;;;;;;5071293;28;20287;-55
2023/06/23 07:28:02;;;;;;;19.05;14.90;;;24.30;99.90;;;;;;5070771;28;20209;-55
2023/06/23 07:30:30;;;;;;;17.02;13.85;;;23.90;99.90;;;;;;5070802;28;20269;-56
2023/06/23 07:32:57;;;;;;;17.98;14.93;;;23.70;99.90;;;;;;5071157;28;20599;-56
2023/06/23 07:35:24;;;;;;;18.83;14.35;;;23.80;99.90;;;;;;5070941;28;20266;-58
2023/06/23 07:37:51;;;;;;;18.17;14.13;;;23.70;99.90;;;;;;5070630;28;20677;-57
2023/06/23 07:40:17;;;;;;;14.18;12.75;;;23.60;99.90;;;;;;5070610;28;20759;-56
2023/06/23 07:42:44;;;;;;;13.95;12.23;;;23.60;99.90;;;;;;5070799;28;20581;-56
2023/06/23 07:45:11;;;;;;;17.70;12.80;;;23.70;99.90;;;;;;5070721;28;20582;-57
2023/06/23 07:47:39;;;;;;;13.77;12.48;;;23.80;99.90;;;;;;5070735;28;20208;-56
2023/06/23 07:50:07;;;;;;;15.25;12.45;;;23.80;99.90;;;;;;5070759;28;20224;-56
2023/06/23 07:52:33;;;;;;;13.68;11.68;;;23.70;99.90;;;;;;5070741;28;20319;-56
2023/06/23 07:55:00;;;;;;;12.73;10.88;;;23.70;99.90;;;;;;5070622;28;20221;-56
2023/06/23 07:57:27;;;;;;;13.77;11.68;;;23.70;99.90;;;;;;5070352;28;20267;-58
2023/06/23 07:59:53;;;;;;;13.70;11.95;;;23.80;99.90;;;;;;5070895;28;20232;-56
2023/06/23 08:02:20;;;;;;;15.82;12.32;;;23.70;99.90;;;;;;5074551;28;20262;-56
2023/06/23 08:04:48;;;;;;;16.08;12.75;;;23.60;99.90;;;;;;5074356;28;20220;-57
2023/06/23 08:07:15;;;;;;;13.07;11.13;;;23.60;99.90;;;;;;5073865;28;20209;-55
2023/06/23 08:09:42;;;;;;;13.27;9.57;;;23.60;99.90;;;;;;5073647;28;20299;-58
2023/06/23 08:12:09;;;;;;;11.88;10.45;;;23.50;99.90;;;;;;5074119;28;20208;-58
2023/06/23 08:14:36;;;;;;;13.50;12.10;;;23.60;99.90;;;;;;5074260;28;20312;-58
2023/06/23 08:17:03;;;;;;;16.48;12.38;;;23.80;99.90;;;;;;5068947;28;20201;-65
2023/06/23 08:19:30;;;;;;;13.80;11.65;;;23.80;99.90;;;;;;5073213;28;20236;-65
2023/06/23 08:21:58;;;;;;;12.95;11.55;;;23.70;99.90;;;;;;5074213;28;20262;-65
2023/06/23 08:24:25;;;;;;;18.52;11.43;;;23.80;99.90;;;;;;5073708;28;20200;-57
2023/06/23 08:26:51;;;;;;;11.43;9.82;;;24.20;99.90;;;;;;5073337;28;20204;-58
2023/06/23 08:29:18;;;;;;;14.82;9.88;;;24.90;99.90;;;;;;5073583;28;20237;-57
2023/06/23 08:31:45;;;;;;;11.23;9.00;;;25.80;99.90;;;;;;5074307;28;20204;-57
2023/06/23 08:34:11;;;;;;;11.93;9.77;;;26.50;99.90;;;;;;5073663;28;20271;-58
2023/06/23 08:36:38;;;;;;;10.43;8.75;;;26.90;99.90;;;;;;5072942;28;20645;-57
2023/06/23 08:39:06;;;;;;;12.70;10.18;;;26.90;99.90;;;;;;5073236;28;20225;-57
2023/06/23 08:41:35;;;;;;;13.07;10.00;;;26.80;99.90;;;;;;5073643;28;20205;-58
2023/06/23 08:44:02;;;;;;;13.52;9.10;;;26.90;99.90;;;;;;5073701;28;20205;-58
2023/06/23 08:46:32;;;;;;;14.13;9.38;;;27.10;99.90;;;;;;5073005;28;20625;-61
2023/06/23 08:49:06;;;;;;;11.85;9.40;;;27.00;99.90;;;;;;5072827;28;20316;-59
2023/06/23 08:51:34;;;;;;;10.30;9.23;;;27.20;99.90;;;;;;5073111;28;20209;-59
2023/06/23 08:54:01;;;;;;;10.75;8.73;;;27.40;99.90;;;;;;5072942;28;20641;-59
2023/06/23 08:56:29;;;;;;;14.98;9.38;;;27.60;99.90;;;;;;5072881;28;20213;-59
2023/06/23 08:58:56;;;;;;;8.63;7.82;;;27.90;99.90;;;;;;5073187;28;20278;-56
2023/06/23 09:01:23;;;;;;;10.13;8.65;;;28.00;99.50;;;;;;5073098;28;20208;-56
2023/06/23 09:03:51;;;;;;;10.05;8.68;;;28.00;99.30;;;;;;5073256;28;20209;-56
2023/06/23 09:06:18;;;;;;;10.68;7.53;;;27.70;99.10;;;;;;5072439;28;20204;-57
2023/06/23 09:08:44;;;;;;;9.55;7.13;;;27.60;99.10;;;;;;5072684;28;20220;-55
2023/06/23 09:11:11;;;;;;;7.38;6.40;;;27.50;98.50;;;;;;5072671;28;20231;-55
2023/06/23 09:13:42;;;;;;;8.25;6.90;;;27.50;98.40;;;;;;5073042;28;20277;-56
2023/06/23 09:16:10;;;;;;;7.80;5.85;;;27.50;97.90;;;;;;5072561;28;20228;-55
2023/06/23 09:18:41;;;;;;;6.75;5.47;;;27.60;97.70;;;;;;5072842;28;20215;-56
2023/06/23 09:21:08;;;;;;;6.85;6.05;;;27.80;97.10;;;;;;5072762;28;20296;-56
2023/06/23 09:23:35;;;;;;;7.28;6.50;;;28.20;96.20;;;;;;5072806;28;20668;-59
2023/06/23 09:26:03;;;;;;;7.38;6.30;;;28.30;95.10;;;;;;5072284;28;20669;-59
2023/06/23 09:28:31;;;;;;;9.18;7.13;;;28.20;95.30;;;;;;5072516;28;20209;-60
2023/06/23 09:31:07;;;;;;;8.63;6.47;;;28.20;95.50;;;;;;5072790;28;20205;-60
2023/06/23 09:33:34;;;;;;;9.55;7.03;;;28.20;95.40;;;;;;5072368;28;20220;-60
2023/06/23 09:36:06;;;;;;;8.52;6.20;;;28.20;95.10;;;;;;5071811;28;20221;-61
2023/06/23 09:38:36;;;;;;;8.25;6.82;;;28.20;95.60;;;;;;5072367;28;20212;-59
2023/06/23 09:41:09;;;;;;;12.00;7.28;;;28.40;95.90;;;;;;5072483;28;20205;-60
2023/06/23 09:43:40;;;;;;;6.90;5.22;;;28.40;95.20;;;;;;5072554;28;20650;-60
2023/06/23 09:46:08;;;;;;;8.02;6.32;;;28.00;94.10;;;;;;5071791;28;20650;-60
2023/06/23 09:48:36;;;;;;;7.72;6.43;;;27.70;95.10;;;;;;5072386;28;20397;-62
2023/06/23 09:51:04;;;;;;;9.50;6.28;;;27.80;95.80;;;;;;5072173;28;20262;-62
2023/06/23 09:53:33;;;;;;;6.07;5.32;;;27.90;94.50;;;;;;5072207;28;20594;-61
2023/06/23 09:56:00;;;;;;;8.98;5.40;;;28.10;94.70;;;;;;5071722;28;20553;-60
2023/06/23 09:58:31;;;;;;;9.45;5.60;;;28.00;93.70;;;;;;5071947;28;20286;-62
2023/06/23 10:01:02;;;;;;;6.38;5.55;;;27.80;93.60;;;;;;5072200;28;20472;-60
2023/06/23 10:03:30;;;;;;;8.75;5.40;;;27.30;93.70;;;;;;5071739;28;20212;-61
2023/06/23 10:05:58;;;;;;;6.45;5.75;;;26.90;94.30;;;;;;5071478;28;20200;-62
2023/06/23 10:08:26;;;;;;;8.68;5.45;;;26.70;95.10;;;;;;5071821;28;20240;-61
2023/06/23 10:10:53;;;;;;;5.95;4.93;;;26.50;95.60;;;;;;5071444;28;20236;-60
2023/06/23 10:13:20;;;;;;;9.45;5.47;;;26.50;95.50;;;;;;5071717;28;20664;-59
2023/06/23 10:15:47;;;;;;;5.22;4.30;;;26.40;95.40;;;;;;5070949;28;20228;-60
2023/06/23 10:18:14;;;;;;;8.77;4.60;;;26.20;95.30;;;;;;5071621;28;20224;-58
2023/06/23 10:20:42;;;;;;;8.32;5.15;;;26.40;95.50;;;;;;5071339;28;20236;-58
2023/06/23 10:23:09;;;;;;;5.78;4.93;;;26.60;95.50;;;;;;5070765;28;20307;-58
2023/06/23 10:25:37;;;;;;;7.65;4.93;;;26.90;95.50;;;;;;5071394;28;20258;-55
2023/06/23 10:28:08;;;;;;;6.60;4.35;;;27.30;95.20;;;;;;5071226;28;20259;-55
2023/06/23 10:30:35;;;;;;;6.18;5.18;;;27.40;94.00;;;;;;5071376;28;20274;-56
2023/06/23 10:33:03;;;;;;;7.93;4.80;;;27.50;94.00;;;;;;5071284;28;20205;-55
2023/06/23 10:35:31;;;;;;;6.10;4.57;;;27.50;93.50;;;;;;5071365;28;20220;-55
2023/06/23 10:38:04;;;;;;;6.55;5.60;;;27.50;93.50;;;;;;5070845;28;20233;-55
2023/06/23 10:40:40;;;;;;;7.82;5.88;;;27.20;93.80;;;;;;5071131;28;20252;-59
2023/06/23 10:43:08;;;;;;;7.97;6.00;;;26.70;94.60;;;;;;5071701;28;20205;-60
2023/06/23 10:45:36;;;;;;;8.18;5.53;;;26.40;95.80;;;;;;5071097;28;20288;-54
2023/06/23 10:48:03;;;;;;;6.03;5.05;;;26.20;96.40;;;;;;5071377;28;20209;-54
2023/06/23 10:50:30;;;;;;;6.35;5.50;;;26.30;96.60;;;;;;5071018;28;20236;-55
2023/06/23 10:53:10;;;;;;;14.30;6.95;;;26.50;94.30;;;;;;5071315;28;20215;-56
2023/06/23 10:55:39;;;;;;;6.07;4.10;;;26.80;94.60;;;;;;5071658;28;20224;-56
2023/06/23 10:58:11;;;;;;;6.07;4.70;;;27.00;93.30;;;;;;5071923;28;20587;-57
2023/06/23 11:00:37;;;;;;;6.10;5.35;;;27.10;93.70;;;;;;5071211;28;20225;-58
2023/06/23 11:03:09;;;;;;;7.35;5.03;;;26.90;94.30;;;;;;5070998;28;20217;-58
2023/06/23 11:05:40;;;;;;;8.00;5.15;;;26.80;94.40;;;;;;5071315;28;20261;-57
2023/06/23 11:08:13;;;;;;;7.63;5.07;;;26.90;94.20;;;;;;5071128;28;20234;-58
2023/06/23 11:10:51;;;;;;;5.72;4.50;;;26.80;94.40;;;;;;5070862;28;20244;-60
2023/06/23 11:13:18;;;;;;;7.32;5.07;;;26.80;93.80;;;;;;5071273;28;20216;-56
2023/06/23 11:15:55;;;;;;;6.00;4.35;;;26.90;93.80;;;;;;5070890;28;20221;-56
2023/06/23 11:18:23;;;;;;;4.72;4.15;;;27.10;93.60;;;;;;5071445;28;20207;-58
2023/06/23 11:20:51;;;;;;;5.82;3.90;;;27.30;92.60;;;;;;5070758;28;20732;-57
2023/06/23 11:23:20;;;;;;;4.97;4.13;;;27.60;91.80;;;;;;5070946;28;20211;-57
2023/06/23 11:25:48;;;;;;;6.93;4.28;;;27.90;91.50;;;;;;5070773;28;20572;-60
2023/06/23 11:28:29;;;;;;;4.53;3.78;;;28.20;91.00;;;;;;5071018;28;20217;-57
2023/06/23 11:31:08;;;;;;;8.18;4.65;;;28.40;90.60;;;;;;5071255;28;20225;-57
2023/06/23 11:33:37;;;;;;;6.85;4.78;;;28.30;91.40;;;;;;5071020;28;20654;-58
2023/06/23 11:36:05;;;;;;;9.40;4.22;;;28.10;92.60;;;;;;5074567;28;20258;-58
2023/06/23 11:38:35;;;;;;;4.90;4.40;;;28.10;92.50;;;;;;5075165;28;20205;-57
2023/06/23 11:41:02;;;;;;;5.00;3.88;;;28.20;91.90;;;;;;5074587;28;20578;-58
2023/06/23 11:43:32;;;;;;;4.28;3.05;;;28.50;90.40;;;;;;5075059;28;20216;-58
2023/06/23 11:46:05;;;;;;;4.90;3.08;;;28.80;89.00;;;;;;5074782;28;20291;-56
2023/06/23 11:48:32;;;;;;;5.47;2.85;;;28.90;80.60;;;;;;5075010;28;20587;-57
2023/06/23 11:51:00;;;;;;;6.97;3.30;;;28.50;81.10;;;;;;5074579;28;20213;-57
2023/06/23 11:53:27;;;;;;;3.80;3.30;;;28.50;83.60;;;;;;5074526;28;20205;-61
2023/06/23 11:55:55;;;;;;;4.05;2.90;;;28.50;84.30;;;;;;5074191;28;20221;-58
2023/06/23 11:58:22;;;;;;;3.20;2.90;;;28.80;82.60;;;;;;5067183;28;20213;-56
2023/06/23 12:00:49;;;;;;;4.43;3.65;;;29.20;81.60;;;;;;5072122;28;20228;-56
2023/06/23 12:03:17;;;;;;;7.47;3.90;;;29.40;81.00;;;;;;5073560;28;20204;-58
2023/06/23 12:05:44;;;;;;;4.13;3.25;;;29.50;79.50;;;;;;5074032;28;20686;-56
2023/06/23 12:08:11;;;;;;;3.20;2.90;;;29.50;79.70;;;;;;5074759;28;20221;-54
2023/06/23 12:10:38;;;;;;;4.57;3.20;;;29.40;80.00;;;;;;5074190;28;20609;-57
2023/06/23 12:13:09;;;;;;;5.10;2.80;;;29.30;80.10;;;;;;5074175;28;20201;-59
2023/06/23 12:15:37;;;;;;;6.93;2.80;;;29.30;79.80;;;;;;5073852;28;20221;-60
2023/06/23 12:18:04;;;;;;;4.45;2.58;;;29.50;78.00;;;;;;5073288;28;20208;-59
2023/06/23 12:20:34;;;;;;;3.83;3.42;;;29.60;75.30;;;;;;5074069;28;20225;-60
2023/06/23 12:23:03;;;;;;;3.05;2.75;;;29.40;75.00;;;;;;5073993;28;20277;-60
2023/06/23 12:25:31;;;;;;;2.70;2.45;;;29.40;75.00;;;;;;5073977;28;20297;-59
2023/06/23 12:27:58;;;;;;;3.33;2.63;;;29.50;73.30;;;;;;5073618;28;20204;-59
2023/06/23 12:30:27;;;;;;;2.90;2.50;;;29.20;74.30;;;;;;5073132;28;20229;-59
2023/06/23 12:32:55;;;;;;;3.30;2.45;;;28.60;75.60;;;;;;5071613;28;20208;-59
2023/06/23 12:35:22;;;;;;;4.15;2.50;;;28.10;76.30;;;;;;5071583;28;20643;-60
2023/06/23 12:37:50;;;;;;;6.18;2.45;;;27.70;76.80;;;;;;5073678;28;20585;-62
2023/06/23 12:40:30;;;;;;;2.97;2.42;;;27.80;77.80;;;;;;5073214;28;20232;-59
2023/06/23 12:42:58;;;;;;;4.10;2.63;;;27.90;76.00;;;;;;5072259;28;20209;-62
2023/06/23 12:45:27;;;;;;;4.45;2.60;;;28.10;75.00;;;;;;5073354;28;20292;-60
2023/06/23 12:47:54;;;;;;;4.80;2.72;;;28.40;75.40;;;;;;5073033;28;20266;-58
2023/06/23 12:50:27;;;;;;;4.70;2.58;;;28.60;73.80;;;;;;5073755;28;20233;-61